createdAt,value
2019-05-29T00:01:36.604Z,87.99
2019-05-29T00:04:10.816Z,87.69
2019-05-29T00:06:44.085Z,87.40
2019-05-29T00:09:18.452Z,87.56
2019-05-29T00:11:52.836Z,87.35
2019-05-29T00:14:27.608Z,87.45
2019-05-29T00:17:01.613Z,87.46
2019-05-29T00:19:33.011Z,87.63
2019-05-29T00:22:08.865Z,87.38
2019-05-29T00:24:43.409Z,87.42
2019-05-29T00:27:15.621Z,87.30
2019-05-29T00:29:52.107Z,87.13
2019-05-29T00:32:26.953Z,86.50
2019-05-29T00:35:00.188Z,86.98
2019-05-29T00:37:32.149Z,86.86
2019-05-29T00:40:05.173Z,86.12
2019-05-29T00:42:39.963Z,86.44
2019-05-29T00:45:13.428Z,85.99
2019-05-29T00:48:07.610Z,85.91
2019-05-29T00:50:42.113Z,86.21
2019-05-29T00:53:18.443Z,86.75
2019-05-29T00:55:59.268Z,86.29
2019-05-29T00:58:34.587Z,86.32
2019-05-29T01:01:11.362Z,86.08
2019-05-29T01:03:45.144Z,86.65
2019-05-29T01:06:20.260Z,86.55
2019-05-29T01:08:55.993Z,86.87
2019-05-29T01:11:29.319Z,86.73
2019-05-29T01:14:05.450Z,86.56
2019-05-29T01:16:38.399Z,86.47
2019-05-29T01:19:26.436Z,86.28
2019-05-29T01:22:00.057Z,86.44
2019-05-29T01:24:34.402Z,86.19
2019-05-29T01:27:10.092Z,86.11
2019-05-29T01:29:41.475Z,85.99
2019-05-29T01:32:19.607Z,85.89
2019-05-29T01:34:54.217Z,85.99
2019-05-29T01:37:26.528Z,86.24
2019-05-29T01:39:59.804Z,86.42
2019-05-29T01:42:33.585Z,86.43
2019-05-29T01:45:08.784Z,86.38
2019-05-29T01:47:41.489Z,87.30
2019-05-29T01:50:34.490Z,87.28
2019-05-29T01:53:08.413Z,87.40
2019-05-29T01:55:49.108Z,87.36
2019-05-29T01:58:21.894Z,87.87
2019-05-29T02:00:55.421Z,87.56
2019-05-29T02:03:43.765Z,88.38
2019-05-29T02:06:19.995Z,89.10
2019-05-29T02:08:53.676Z,88.98
2019-05-29T02:11:25.881Z,89.02
2019-05-29T02:13:59.546Z,89.46
2019-05-29T02:16:32.659Z,90.18
2019-05-29T02:19:06.113Z,89.79
2019-05-29T02:21:38.941Z,89.97
2019-05-29T02:24:11.618Z,90.85
2019-05-29T02:26:45.748Z,90.43
2019-05-29T02:29:22.894Z,90.53
2019-05-29T02:31:56.897Z,90.77
2019-05-29T02:34:29.961Z,91.11
2019-05-29T02:37:01.772Z,90.90
2019-05-29T02:39:35.043Z,90.90
2019-05-29T02:42:07.752Z,90.81
2019-05-29T02:44:41.022Z,91.21
2019-05-29T02:47:13.716Z,90.66
2019-05-29T02:49:49.611Z,90.75
2019-05-29T02:52:26.332Z,90.90
2019-05-29T02:54:58.751Z,90.47
2019-05-29T02:57:31.822Z,90.63
2019-05-29T03:00:05.393Z,90.74
2019-05-29T03:02:38.004Z,90.29
2019-05-29T03:05:11.755Z,90.79
2019-05-29T03:07:55.413Z,90.64
2019-05-29T03:10:36.541Z,90.37
2019-05-29T03:13:08.782Z,90.25
2019-05-29T03:16:08.739Z,90.29
2019-05-29T03:18:28.141Z,90.39
2019-05-29T03:21:01.208Z,90.74
2019-05-29T03:23:36.498Z,91.17
2019-05-29T03:26:30.318Z,90.97
2019-05-29T03:29:02.011Z,90.50
2019-05-29T03:31:46.625Z,90.47
2019-05-29T03:34:16.941Z,89.30
2019-05-29T03:36:53.962Z,89.46
2019-05-29T03:39:26.442Z,88.89
2019-05-29T03:42:00.619Z,88.73
2019-05-29T03:44:35.438Z,88.44
2019-05-29T03:47:11.907Z,88.14
2019-05-29T03:49:44.768Z,87.49
2019-05-29T03:52:17.246Z,87.48
2019-05-29T03:54:49.127Z,87.35
2019-05-29T03:57:23.038Z,87.22
2019-05-29T03:59:55.125Z,87.74
2019-05-29T04:02:28.560Z,87.56
2019-05-29T04:05:04.153Z,87.90
2019-05-29T04:07:40.381Z,87.39
2019-05-29T04:10:49.846Z,88.34
2019-05-29T04:13:34.101Z,88.21
2019-05-29T04:16:08.325Z,88.83
2019-05-29T04:18:42.585Z,88.89
2019-05-29T04:21:18.006Z,89.62
2019-05-29T04:23:55.239Z,90.02
2019-05-29T04:26:27.924Z,90.54
2019-05-29T04:29:11.127Z,91.46
2019-05-29T04:31:44.416Z,92.31
2019-05-29T04:34:18.109Z,92.65
2019-05-29T04:36:51.946Z,92.95
2019-05-29T04:39:28.411Z,93.68
2019-05-29T04:42:04.166Z,94.43
2019-05-29T04:44:38.957Z,95.00
2019-05-29T04:47:12.534Z,94.60
2019-05-29T04:49:46.501Z,95.26
2019-05-29T04:52:20.009Z,95.86
2019-05-29T04:54:53.476Z,96.55
2019-05-29T04:57:26.201Z,97.08
2019-05-29T04:59:58.615Z,97.19
2019-05-29T05:02:35.802Z,97.95
2019-05-29T05:05:09.745Z,98.19
2019-05-29T05:07:47.550Z,98.67
2019-05-29T05:10:46.098Z,98.35
2019-05-29T05:13:19.903Z,98.50
2019-05-29T05:15:53.575Z,99.14
2019-05-29T05:18:26.464Z,98.49
2019-05-29T05:21:00.861Z,99.17
2019-05-29T05:23:32.359Z,98.51
2019-05-29T05:26:05.939Z,98.81
2019-05-29T05:28:38.525Z,98.77
2019-05-29T05:31:14.275Z,98.18
2019-05-29T05:33:50.251Z,98.09
2019-05-29T05:36:26.249Z,97.86
2019-05-29T05:38:57.656Z,98.14
2019-05-29T05:41:30.818Z,97.87
2019-05-29T05:44:02.721Z,98.56
2019-05-29T05:46:39.400Z,98.40
2019-05-29T05:49:11.744Z,98.25
2019-05-29T05:51:45.675Z,98.93
2019-05-29T05:54:19.412Z,98.78
2019-05-29T05:56:53.926Z,99.06
2019-05-29T05:59:26.664Z,98.79
2019-05-29T06:02:00.034Z,98.88
2019-05-29T06:04:35.865Z,98.51
2019-05-29T06:07:08.824Z,98.92
2019-05-29T06:09:42.636Z,98.93
2019-05-29T06:12:15.068Z,99.05
2019-05-29T06:14:47.960Z,99.18
2019-05-29T06:17:22.129Z,98.72
2019-05-29T06:19:56.671Z,99.35
2019-05-29T06:22:29.854Z,99.01
2019-05-29T06:25:02.910Z,98.48
2019-05-29T06:27:37.050Z,98.91
2019-05-29T06:30:12.867Z,99.11
2019-05-29T06:32:46.454Z,99.79
2019-05-29T06:35:37.920Z,99.38
2019-05-29T06:38:10.736Z,100.00
2019-05-29T06:40:44.019Z,100.00
2019-05-29T06:43:31.695Z,100.00
2019-05-29T06:46:04.167Z,100.00
2019-05-29T06:48:46.656Z,100.00
2019-05-29T06:51:11.281Z,100.00
2019-05-29T06:53:45.390Z,100.00
2019-05-29T06:56:20.071Z,100.00
2019-05-29T06:58:54.132Z,100.00
2019-05-29T07:01:27.943Z,100.00
2019-05-29T07:04:11.967Z,100.00
2019-05-29T07:06:36.519Z,100.00
2019-05-29T07:09:09.866Z,100.00
2019-05-29T07:11:43.494Z,100.00
2019-05-29T07:14:16.763Z,100.00
2019-05-29T07:16:55.657Z,100.00
2019-05-29T07:19:29.353Z,100.00
2019-05-29T07:21:58.404Z,100.00
2019-05-29T07:24:34.578Z,100.00
2019-05-29T07:27:13.203Z,100.00
2019-05-29T07:29:45.235Z,100.00
2019-05-29T07:32:22.901Z,100.00
2019-05-29T07:35:03.685Z,100.00
2019-05-29T07:37:37.851Z,100.00
2019-05-29T07:40:14.419Z,100.00
2019-05-29T07:42:55.241Z,100.00
2019-05-29T07:45:37.957Z,100.00
2019-05-29T07:48:10.361Z,100.00
2019-05-29T07:50:46.697Z,100.00
2019-05-29T07:53:23.918Z,100.00
2019-05-29T07:55:56.970Z,100.00
2019-05-29T07:58:30.877Z,100.00
2019-05-29T08:01:12.829Z,100.00
2019-05-29T08:03:45.407Z,100.00
2019-05-29T08:06:19.982Z,100.00
2019-05-29T08:08:53.359Z,100.00
2019-05-29T08:11:26.974Z,100.00
2019-05-29T08:14:00.561Z,100.00
2019-05-29T08:16:32.300Z,100.00
2019-05-29T08:19:08.719Z,100.00
2019-05-29T08:21:48.499Z,100.00
2019-05-29T08:24:24.823Z,100.00
2019-05-29T08:26:56.598Z,100.00
2019-05-29T08:29:31.677Z,100.00
2019-05-29T08:32:04.389Z,100.00
2019-05-29T08:34:38.702Z,100.00
2019-05-29T08:37:12.446Z,100.00
2019-05-29T08:39:43.716Z,100.00
2019-05-29T08:42:23.221Z,99.97
2019-05-29T08:44:53.995Z,99.72
2019-05-29T08:47:28.496Z,99.78
2019-05-29T08:50:17.268Z,100.00
2019-05-29T08:52:35.796Z,99.46
2019-05-29T08:55:13.914Z,100.00
2019-05-29T08:57:48.440Z,99.67
2019-05-29T09:00:49.791Z,99.75
2019-05-29T09:03:19.440Z,100.00
2019-05-29T09:06:11.460Z,100.00
2019-05-29T09:08:55.332Z,100.00
2019-05-29T09:11:26.863Z,100.00
2019-05-29T09:13:59.581Z,100.00
2019-05-29T09:16:34.658Z,100.00
2019-05-29T09:19:08.304Z,99.58
2019-05-29T09:21:42.429Z,100.00
2019-05-29T09:24:19.369Z,99.76
2019-05-29T09:26:56.960Z,99.88
2019-05-29T09:29:32.416Z,100.00
2019-05-29T09:32:07.828Z,99.85
2019-05-29T09:34:39.772Z,100.00
2019-05-29T09:37:15.476Z,99.03
2019-05-29T09:39:49.793Z,98.80
2019-05-29T09:42:25.487Z,98.36
2019-05-29T09:44:58.931Z,98.47
2019-05-29T09:47:32.705Z,99.15
2019-05-29T09:50:08.800Z,99.01
2019-05-29T09:52:55.290Z,99.28
2019-05-29T09:55:39.983Z,99.96
2019-05-29T09:58:12.795Z,100.00
2019-05-29T10:00:47.174Z,100.00
2019-05-29T10:03:19.783Z,100.00
2019-05-29T10:05:55.920Z,99.04
2019-05-29T10:08:31.376Z,99.32
2019-05-29T10:11:11.360Z,98.55
2019-05-29T10:13:46.472Z,98.94
2019-05-29T10:16:22.356Z,98.10
2019-05-29T10:18:56.043Z,96.43
2019-05-29T10:21:39.953Z,96.97
2019-05-29T10:24:08.851Z,96.89
2019-05-29T10:26:43.119Z,96.10
2019-05-29T10:29:16.933Z,96.08
2019-05-29T10:31:53.425Z,95.74
2019-05-29T10:34:28.698Z,94.94
2019-05-29T10:37:00.604Z,93.99
2019-05-29T10:39:33.656Z,91.80
2019-05-29T10:42:13.719Z,93.06
2019-05-29T10:44:46.925Z,92.48
2019-05-29T10:47:18.708Z,90.44
2019-05-29T10:49:51.785Z,91.31
2019-05-29T10:52:33.423Z,89.98
2019-05-29T10:55:32.472Z,90.97
2019-05-29T10:58:06.073Z,91.75
2019-05-29T11:01:00.578Z,92.76
2019-05-29T11:03:33.579Z,91.80
2019-05-29T11:06:19.751Z,92.60
2019-05-29T11:08:52.249Z,92.59
2019-05-29T11:11:27.786Z,91.59
2019-05-29T11:14:00.153Z,91.24
2019-05-29T11:16:33.580Z,90.92
2019-05-29T11:19:06.359Z,91.57
2019-05-29T11:21:41.046Z,90.13
2019-05-29T11:24:16.814Z,89.92
2019-05-29T11:26:48.446Z,91.47
2019-05-29T11:29:22.435Z,89.48
2019-05-29T11:31:56.980Z,90.37
2019-05-29T11:34:29.401Z,89.67
2019-05-29T11:37:03.182Z,89.26
2019-05-29T11:39:37.440Z,91.03
2019-05-29T11:42:26.356Z,90.53
2019-05-29T11:44:50.859Z,90.89
2019-05-29T11:47:27.443Z,90.61
2019-05-29T11:50:18.600Z,90.70
2019-05-29T11:52:43.677Z,91.60
2019-05-29T11:55:33.852Z,92.07
2019-05-29T11:58:06.454Z,92.43
2019-05-29T12:00:39.703Z,91.38
2019-05-29T12:03:22.761Z,91.57
2019-05-29T12:05:57.592Z,92.18
2019-05-29T12:08:32.498Z,92.66
2019-05-29T12:11:07.204Z,93.16
2019-05-29T12:13:54.151Z,94.03
2019-05-29T12:16:38.207Z,92.99
2019-05-29T12:19:20.362Z,92.98
2019-05-29T12:21:56.515Z,91.99
2019-05-29T12:24:36.700Z,93.31
2019-05-29T12:27:09.550Z,94.00
2019-05-29T12:29:42.515Z,93.83
2019-05-29T12:32:22.292Z,93.31
2019-05-29T12:35:03.048Z,92.55
2019-05-29T12:37:45.243Z,90.89
2019-05-29T12:40:38.234Z,91.42
2019-05-29T12:43:25.958Z,91.30
2019-05-29T12:45:53.372Z,90.53
2019-05-29T12:48:28.286Z,89.71
2019-05-29T12:51:24.238Z,88.61
2019-05-29T12:53:58.040Z,88.79
2019-05-29T12:56:30.861Z,88.98
2019-05-29T12:59:04.700Z,88.71
2019-05-29T13:01:41.543Z,87.11
2019-05-29T13:04:18.777Z,88.11
2019-05-29T13:06:54.352Z,88.57
2019-05-29T13:09:33.160Z,87.11
2019-05-29T13:12:08.515Z,87.39
2019-05-29T13:14:40.071Z,87.06
2019-05-29T13:17:11.857Z,87.59
2019-05-29T13:19:49.492Z,87.29
2019-05-29T13:22:21.214Z,85.16
2019-05-29T13:24:59.287Z,86.71
2019-05-29T13:27:34.655Z,87.30
2019-05-29T13:30:13.121Z,86.81
2019-05-29T13:33:03.592Z,86.62
2019-05-29T13:35:50.086Z,84.61
2019-05-29T13:38:24.035Z,85.64
2019-05-29T13:41:00.475Z,83.60
2019-05-29T13:43:35.937Z,84.13
2019-05-29T13:46:09.160Z,82.86
2019-05-29T13:48:47.262Z,81.96
2019-05-29T13:51:25.405Z,80.13
2019-05-29T13:54:03.734Z,80.43
2019-05-29T13:56:32.987Z,78.97
2019-05-29T13:59:08.667Z,78.90
2019-05-29T14:01:42.269Z,77.79
2019-05-29T14:04:15.013Z,75.38
2019-05-29T14:06:47.908Z,75.11
2019-05-29T14:09:22.779Z,73.44
2019-05-29T14:11:57.049Z,70.36
2019-05-29T14:14:29.085Z,72.86
2019-05-29T14:17:04.466Z,73.32
2019-05-29T14:19:36.027Z,72.30
2019-05-29T14:22:09.290Z,72.29
2019-05-29T14:24:43.024Z,72.46
2019-05-29T14:27:14.969Z,73.28
2019-05-29T14:29:49.337Z,72.30
2019-05-29T14:32:21.221Z,72.52
2019-05-29T14:34:55.197Z,72.23
2019-05-29T14:37:28.527Z,72.27
2019-05-29T14:40:03.603Z,71.80
2019-05-29T14:42:35.348Z,71.65
2019-05-29T14:45:10.371Z,70.68
2019-05-29T14:47:47.882Z,70.60
2019-05-29T14:50:56.302Z,72.90
2019-05-29T14:53:27.559Z,73.33
2019-05-29T14:56:00.209Z,73.98
2019-05-29T14:58:34.854Z,72.06
2019-05-29T15:01:11.407Z,72.81
2019-05-29T15:03:45.331Z,71.90
2019-05-29T15:06:18.279Z,71.30
2019-05-29T15:08:51.326Z,73.23
2019-05-29T15:11:24.293Z,73.52
2019-05-29T15:13:57.264Z,73.41
2019-05-29T15:16:33.173Z,73.92
2019-05-29T15:19:06.891Z,75.65
2019-05-29T15:21:40.874Z,77.61
2019-05-29T15:24:15.904Z,78.28
2019-05-29T15:26:48.389Z,79.26
2019-05-29T15:29:24.119Z,80.09
2019-05-29T15:31:57.357Z,80.04
2019-05-29T15:34:30.631Z,80.11
2019-05-29T15:37:03.484Z,80.51
2019-05-29T15:39:37.922Z,80.76
2019-05-29T15:42:13.389Z,81.28
2019-05-29T15:44:50.021Z,80.47
2019-05-29T15:47:24.499Z,81.28
2019-05-29T15:49:59.834Z,82.24
2019-05-29T15:52:34.705Z,82.72
2019-05-29T15:55:27.372Z,83.54
2019-05-29T15:58:02.305Z,83.47
2019-05-29T16:00:40.053Z,83.37
2019-05-29T16:03:11.562Z,83.18
2019-05-29T16:05:50.047Z,83.12
2019-05-29T16:08:21.602Z,83.94
2019-05-29T16:10:57.547Z,84.20
2019-05-29T16:13:32.360Z,85.22
2019-05-29T16:16:03.580Z,85.64
2019-05-29T16:18:35.866Z,85.46
2019-05-29T16:21:23.266Z,85.77
2019-05-29T16:23:55.624Z,84.69
2019-05-29T16:26:30.268Z,85.26
2019-05-29T16:29:07.107Z,84.35
2019-05-29T16:31:41.460Z,85.28
2019-05-29T16:34:18.899Z,84.10
2019-05-29T16:36:53.399Z,83.75
2019-05-29T16:39:24.844Z,83.28
2019-05-29T16:41:57.810Z,82.95
2019-05-29T16:44:31.589Z,83.05
2019-05-29T16:47:05.674Z,82.92
2019-05-29T16:49:39.949Z,82.56
2019-05-29T16:52:14.884Z,81.91
2019-05-29T16:54:48.857Z,81.55
2019-05-29T16:57:23.238Z,81.10
2019-05-29T17:00:00.362Z,80.46
2019-05-29T17:02:33.757Z,80.51
2019-05-29T17:05:05.819Z,79.29
2019-05-29T17:07:42.015Z,79.57
2019-05-29T17:10:35.605Z,79.00
2019-05-29T17:13:09.870Z,79.24
2019-05-29T17:15:45.681Z,79.12
2019-05-29T17:18:20.490Z,79.21
2019-05-29T17:20:53.908Z,78.75
2019-05-29T17:23:27.061Z,77.93
2019-05-29T17:26:10.601Z,77.95
2019-05-29T17:28:37.889Z,77.63
2019-05-29T17:31:10.012Z,76.98
2019-05-29T17:33:43.831Z,76.87
2019-05-29T17:36:18.939Z,76.46
2019-05-29T17:38:55.496Z,76.99
2019-05-29T17:41:29.968Z,76.33
2019-05-29T17:44:06.467Z,75.62
2019-05-29T17:46:47.228Z,76.30
2019-05-29T17:49:30.962Z,76.23
2019-05-29T17:51:56.256Z,76.24
2019-05-29T17:54:27.794Z,75.62
2019-05-29T17:57:01.544Z,75.09
2019-05-29T17:59:36.089Z,74.73
2019-05-29T18:02:09.914Z,75.14
2019-05-29T18:04:43.214Z,74.39
2019-05-29T18:07:22.544Z,74.38
2019-05-29T18:09:55.198Z,74.45
2019-05-29T18:12:29.573Z,74.36
2019-05-29T18:15:10.036Z,73.44
2019-05-29T18:17:46.281Z,73.82
2019-05-29T18:20:35.749Z,73.53
2019-05-29T18:23:10.432Z,73.45
2019-05-29T18:25:47.639Z,73.68
2019-05-29T18:28:22.038Z,73.41
2019-05-29T18:31:09.837Z,74.01
2019-05-29T18:34:02.075Z,73.63
2019-05-29T18:36:36.286Z,74.25
2019-05-29T18:39:10.771Z,73.81
2019-05-29T18:41:43.497Z,73.84
2019-05-29T18:44:20.725Z,74.19
2019-05-29T18:46:55.564Z,74.70
2019-05-29T18:49:28.479Z,74.91
2019-05-29T18:52:02.627Z,74.68
2019-05-29T18:54:36.269Z,74.57
2019-05-29T18:57:15.587Z,75.19
2019-05-29T18:59:45.189Z,74.92
2019-05-29T19:02:18.900Z,74.74
2019-05-29T19:04:51.638Z,74.58
2019-05-29T19:07:27.717Z,74.93
2019-05-29T19:10:00.655Z,74.37
2019-05-29T19:12:33.484Z,73.42
2019-05-29T19:15:10.954Z,73.92
2019-05-29T19:17:49.303Z,73.96
2019-05-29T19:20:38.924Z,73.64
2019-05-29T19:23:12.585Z,73.33
2019-05-29T19:25:48.070Z,72.85
2019-05-29T19:28:35.600Z,72.53
2019-05-29T19:31:12.705Z,72.25
2019-05-29T19:33:48.921Z,72.94
2019-05-29T19:36:21.137Z,72.38
2019-05-29T19:38:55.631Z,72.53
2019-05-29T19:41:27.931Z,72.58
2019-05-29T19:44:02.392Z,73.07
2019-05-29T19:46:53.136Z,72.39
2019-05-29T19:49:16.184Z,72.00
2019-05-29T19:51:48.703Z,72.23
2019-05-29T19:54:21.595Z,72.37
2019-05-29T19:56:54.961Z,72.17
2019-05-29T19:59:27.952Z,71.96
2019-05-29T20:02:00.715Z,71.78
2019-05-29T20:04:32.713Z,71.67
2019-05-29T20:07:04.945Z,71.65
2019-05-29T20:09:42.108Z,71.65
2019-05-29T20:12:23.332Z,71.52
2019-05-29T20:15:02.263Z,71.29
2019-05-29T20:17:36.287Z,71.43
2019-05-29T20:20:10.714Z,72.03
2019-05-29T20:22:42.787Z,71.43
2019-05-29T20:25:34.960Z,71.72
2019-05-29T20:28:23.718Z,71.55
2019-05-29T20:31:12.011Z,71.60
2019-05-29T20:33:45.746Z,71.52
2019-05-29T20:36:19.792Z,71.97
2019-05-29T20:38:55.890Z,72.04
2019-05-29T20:41:28.621Z,72.37
2019-05-29T20:44:03.840Z,72.93
2019-05-29T20:46:36.870Z,72.87
2019-05-29T20:49:10.964Z,73.06
2019-05-29T20:51:46.442Z,72.92
2019-05-29T20:54:19.306Z,72.66
2019-05-29T20:56:54.539Z,72.31
2019-05-29T20:59:27.842Z,72.69
2019-05-29T21:02:02.130Z,72.68
2019-05-29T21:04:37.024Z,72.45
2019-05-29T21:07:10.043Z,73.19
2019-05-29T21:09:46.180Z,73.47
2019-05-29T21:12:20.214Z,72.87
2019-05-29T21:14:51.870Z,73.10
2019-05-29T21:17:27.323Z,73.32
2019-05-29T21:20:04.422Z,73.81
2019-05-29T21:22:36.903Z,74.17
2019-05-29T21:25:17.946Z,73.62
2019-05-29T21:27:51.332Z,74.60
2019-05-29T21:30:37.396Z,74.85
2019-05-29T21:33:14.998Z,75.36
2019-05-29T21:35:50.651Z,75.49
2019-05-29T21:38:25.931Z,75.68
2019-05-29T21:40:59.638Z,75.20
2019-05-29T21:43:33.656Z,75.74
2019-05-29T21:46:09.882Z,76.84
2019-05-29T21:49:17.580Z,77.60
2019-05-29T21:52:05.490Z,78.60
2019-05-29T21:54:39.263Z,78.69
2019-05-29T21:57:17.117Z,79.81
2019-05-29T21:59:51.185Z,80.55
2019-05-29T22:02:25.331Z,80.96
2019-05-29T22:04:59.004Z,81.24
2019-05-29T22:07:31.371Z,81.60
2019-05-29T22:10:06.190Z,82.15
2019-05-29T22:12:42.487Z,81.74
2019-05-29T22:15:35.299Z,83.16
2019-05-29T22:18:25.044Z,83.37
2019-05-29T22:21:14.969Z,84.26
2019-05-29T22:23:46.228Z,84.67
2019-05-29T22:26:22.203Z,84.00
2019-05-29T22:28:55.267Z,84.15
2019-05-29T22:31:29.385Z,83.21
2019-05-29T22:34:03.669Z,83.29
2019-05-29T22:36:40.852Z,83.58
2019-05-29T22:39:14.323Z,83.37
2019-05-29T22:41:48.159Z,83.73
2019-05-29T22:44:20.533Z,83.80
2019-05-29T22:46:53.674Z,83.47
2019-05-29T22:49:27.365Z,84.15
2019-05-29T22:52:02.502Z,85.13
2019-05-29T22:54:37.417Z,84.50
2019-05-29T22:57:11.384Z,84.52
2019-05-29T22:59:44.686Z,85.64
2019-05-29T23:02:21.771Z,85.60
2019-05-29T23:05:00.332Z,86.32
2019-05-29T23:07:36.155Z,86.32
2019-05-29T23:10:10.222Z,86.29
2019-05-29T23:12:52.828Z,85.54
2019-05-29T23:15:35.524Z,85.13
2019-05-29T23:18:09.954Z,86.37
2019-05-29T23:20:44.590Z,86.40
2019-05-29T23:23:21.281Z,85.90
2019-05-29T23:26:02.956Z,85.84
2019-05-29T23:28:34.610Z,85.59
2019-05-29T23:31:08.749Z,84.06
2019-05-29T23:33:42.628Z,83.80
2019-05-29T23:36:20.066Z,84.39
2019-05-29T23:38:55.095Z,85.14
2019-05-29T23:41:27.705Z,85.19
2019-05-29T23:44:03.742Z,85.14
2019-05-29T23:46:36.733Z,84.87
2019-05-29T23:49:09.950Z,84.43
2019-05-29T23:51:45.116Z,85.32
2019-05-29T23:54:19.823Z,84.75
2019-05-29T23:56:51.710Z,84.49
2019-05-29T23:59:27.928Z,84.09
